createdAt,value
2023-03-23T15:57:51.875Z,15.48
2023-03-23T16:00:23.170Z,15.13
2023-03-23T16:02:55.018Z,14.98
2023-03-23T16:05:24.083Z,15.02
2023-03-23T16:07:56.601Z,15.18
2023-03-23T16:10:26.851Z,14.98
2023-03-23T16:12:56.024Z,14.76
2023-03-23T16:15:25.295Z,15.24
2023-03-23T16:17:54.223Z,14.77
2023-03-23T16:20:25.054Z,14.57
2023-03-23T16:22:56.332Z,14.68
2023-03-23T16:25:25.870Z,14.66
2023-03-23T16:27:54.784Z,14.52
2023-03-23T16:30:25.384Z,14.56
2023-03-23T16:32:57.454Z,14.59
2023-03-23T16:35:26.950Z,14.28
2023-03-23T16:38:08.323Z,14.39
2023-03-23T16:40:38.116Z,14.15
2023-03-23T16:43:08.246Z,14.49
2023-03-23T16:45:38.342Z,14.46
2023-03-23T16:48:08.133Z,14.22
2023-03-23T16:50:38.224Z,14.28
2023-03-23T16:53:09.796Z,14.18
2023-03-23T16:55:39.249Z,14.16
2023-03-23T16:58:16.994Z,14.22
2023-03-23T17:00:48.673Z,14.26
2023-03-23T17:03:18.434Z,14.28
2023-03-23T17:05:49.978Z,14.20
2023-03-23T17:08:21.765Z,14.13
2023-03-23T17:10:50.915Z,13.90
2023-03-23T17:13:19.908Z,13.90
2023-03-23T17:15:49.100Z,13.86
2023-03-23T17:18:18.261Z,13.92
2023-03-23T17:20:47.364Z,13.88
2023-03-23T17:23:17.408Z,13.85
2023-03-23T17:25:48.577Z,14.00
2023-03-23T17:28:19.593Z,13.96
2023-03-23T17:30:50.613Z,13.98
2023-03-23T17:33:19.640Z,13.97
2023-03-23T17:35:51.923Z,14.22
2023-03-23T17:38:21.415Z,14.05
2023-03-23T17:40:57.880Z,14.10
2023-03-23T17:43:27.158Z,14.01
2023-03-23T17:45:57.066Z,14.02
2023-03-23T17:48:27.031Z,13.92
2023-03-23T17:50:57.815Z,14.16
2023-03-23T17:53:27.558Z,14.07
2023-03-23T17:55:58.183Z,14.06
2023-03-23T17:58:27.503Z,14.02
2023-03-23T18:00:57.184Z,13.90
2023-03-23T18:03:27.003Z,13.75
2023-03-23T18:05:59.960Z,14.03
2023-03-23T18:08:29.052Z,14.07
2023-03-23T18:11:00.012Z,14.06
2023-03-23T18:13:30.172Z,13.98
2023-03-23T18:15:59.487Z,14.04
2023-03-23T18:18:28.518Z,14.00
2023-03-23T18:20:57.561Z,14.03
2023-03-23T18:23:26.600Z,14.16
2023-03-23T18:25:55.286Z,14.15
2023-03-23T18:28:25.609Z,14.11
2023-03-23T18:30:54.208Z,14.05
2023-03-23T18:33:25.208Z,13.72
2023-03-23T18:35:58.678Z,14.01
2023-03-23T18:38:27.938Z,14.02
2023-03-23T18:40:56.936Z,13.90
2023-03-23T18:43:27.455Z,13.87
2023-03-23T18:45:57.662Z,13.99
2023-03-23T18:48:26.708Z,14.00
2023-03-23T18:50:57.899Z,14.12
2023-03-23T18:53:27.626Z,14.12
2023-03-23T18:56:05.378Z,14.08
2023-03-23T18:58:35.771Z,14.11
2023-03-23T19:01:04.850Z,14.08
2023-03-23T19:03:33.817Z,14.03
2023-03-23T19:06:04.554Z,14.10
2023-03-23T19:08:34.952Z,14.18
2023-03-23T19:11:04.038Z,14.11
2023-03-23T19:13:34.147Z,13.93
2023-03-23T19:16:04.185Z,14.13
2023-03-23T19:18:33.067Z,13.81
2023-03-23T19:23:33.815Z,14.09
2023-03-23T19:26:02.837Z,14.21
2023-03-23T19:29:18.709Z,13.59
2023-03-23T19:31:25.151Z,13.44
2023-03-23T19:33:54.464Z,13.37
2023-03-23T19:36:24.270Z,13.71
2023-03-23T19:38:54.507Z,13.43
2023-03-23T19:41:25.727Z,13.40
2023-03-23T19:43:55.774Z,13.22
2023-03-23T19:46:29.063Z,13.62
2023-03-23T19:48:59.432Z,13.22
2023-03-23T19:51:28.659Z,13.54
2023-03-23T19:53:58.342Z,13.54
2023-03-23T19:56:28.974Z,13.27
2023-03-23T19:58:58.017Z,13.26
2023-03-23T20:01:29.235Z,13.80
2023-03-23T20:04:00.088Z,13.78
2023-03-23T20:06:29.790Z,13.71
2023-03-23T20:09:00.069Z,13.70
2023-03-23T20:11:30.200Z,13.32
2023-03-23T20:13:59.491Z,13.50
2023-03-23T20:16:29.610Z,13.52
2023-03-23T20:19:00.045Z,13.18
2023-03-23T20:21:29.662Z,13.51
2023-03-23T20:23:59.733Z,13.64
2023-03-23T20:26:30.834Z,13.46
2023-03-23T20:28:59.795Z,13.61
2023-03-23T20:31:34.288Z,13.49
2023-03-23T20:34:07.539Z,13.60
2023-03-23T20:36:40.471Z,13.51
2023-03-23T20:39:11.396Z,13.36
2023-03-23T20:41:40.620Z,13.39
2023-03-23T20:44:15.839Z,13.54
2023-03-23T20:46:46.607Z,13.44
2023-03-23T20:49:16.145Z,13.46
2023-03-23T20:51:46.656Z,13.31
2023-03-23T20:54:16.783Z,13.44
2023-03-23T20:56:46.292Z,13.47
2023-03-23T20:59:15.604Z,13.07
2023-03-23T21:01:46.608Z,13.22
2023-03-23T21:04:20.581Z,13.18
2023-03-23T21:06:52.110Z,13.16
2023-03-23T21:09:21.587Z,13.20
2023-03-23T21:11:50.993Z,13.11
2023-03-23T21:14:20.013Z,13.12
2023-03-23T21:16:49.970Z,13.27
2023-03-23T21:19:19.634Z,12.46
2023-03-23T21:21:56.207Z,12.29
2023-03-23T21:24:28.285Z,12.88
2023-03-23T21:26:58.917Z,12.58
2023-03-23T21:29:28.021Z,12.75
2023-03-23T21:32:07.693Z,12.77
2023-03-23T21:34:38.063Z,12.07
2023-03-23T21:37:06.908Z,12.10
2023-03-23T21:39:36.066Z,11.99
2023-03-23T21:42:06.991Z,12.20
2023-03-23T21:44:36.293Z,12.12
2023-03-23T21:47:06.683Z,12.28
2023-03-23T21:49:35.851Z,12.20
2023-03-23T21:52:09.740Z,12.09
2023-03-23T21:54:41.379Z,12.21
2023-03-23T21:57:10.315Z,12.24
2023-03-23T21:59:41.320Z,12.17
2023-03-23T22:02:13.944Z,12.22
2023-03-23T22:04:42.893Z,11.97
2023-03-23T22:07:12.702Z,11.72
2023-03-23T22:09:45.258Z,11.90
2023-03-23T22:12:14.363Z,12.09
2023-03-23T22:14:43.286Z,12.32
2023-03-23T22:17:13.648Z,11.92
2023-03-23T22:19:42.374Z,12.12
2023-03-23T22:22:11.175Z,12.10
2023-03-23T22:24:40.005Z,12.12
2023-03-23T22:27:08.773Z,12.17
2023-03-23T22:29:37.564Z,12.15
2023-03-23T22:32:06.420Z,12.08
2023-03-23T22:34:36.374Z,11.99
2023-03-23T22:37:05.680Z,12.14
2023-03-23T22:39:35.303Z,12.23
2023-03-23T22:42:04.042Z,12.18
2023-03-23T22:44:33.016Z,12.11
2023-03-23T22:47:01.811Z,11.98
2023-03-23T22:49:30.306Z,12.02
2023-03-23T22:52:00.543Z,12.13
2023-03-23T22:54:29.199Z,12.31
2023-03-23T22:56:58.991Z,12.05
2023-03-23T22:59:27.938Z,12.14
2023-03-23T23:01:57.483Z,12.31
2023-03-23T23:04:26.360Z,12.40
2023-03-23T23:07:06.454Z,12.39
2023-03-23T23:09:42.843Z,12.09
2023-03-23T23:12:12.600Z,12.25
2023-03-23T23:14:45.582Z,12.39
2023-03-23T23:17:14.456Z,11.99
2023-03-23T23:19:43.472Z,12.26
2023-03-23T23:22:18.924Z,12.09
2023-03-23T23:24:49.745Z,12.39
2023-03-23T23:27:18.804Z,12.57
2023-03-23T23:29:47.772Z,12.38
2023-03-23T23:32:16.677Z,12.21
2023-03-23T23:34:45.139Z,12.63
2023-03-23T23:37:14.053Z,12.23
2023-03-23T23:39:42.966Z,12.29
2023-03-23T23:42:13.250Z,11.88
2023-03-23T23:44:43.301Z,11.97
2023-03-23T23:47:14.904Z,12.22
2023-03-23T23:49:43.394Z,12.61
2023-03-23T23:52:12.184Z,11.90
2023-03-23T23:54:42.714Z,12.28
2023-03-23T23:57:13.351Z,11.70
2023-03-23T23:59:42.181Z,11.59
